Station Historical Data
Daily Summary for March 9, 2012 Units:  Both    English   Metric
« Previous Day
Next Day »
Daily Weekly Monthly Yearly Custom
  High: Low: Average:
Temperature: 58.2 °F /  14.6 °C 37.7 °F /  3.2 °C 46.4 °F /  8 °C
Dew Point: 41.4 °F /  5.2 °C 25.7 °F /  -3.5 °C 32.4 °F /  0.2 °C
Humidity: 96% 33% 62%
Wind Speed: 20.0mph /  32.2km/h - 8.3mph /  13.4km/h
Wind Gust: 20.0mph /  32.2km/h - -
Wind- - SSE
Pressure: 30.42 in /  1030 hPa 30.23 in /  1023.6 hPa -
Precipitation: 0.01 in /  0.25 mm    
Historical Graphs
 
 
Tabular Data for March 9, 2012
Time Temperature Dew Point Pressure Wind Wind Speed Wind Gust Humidity Rainfall Rate (Hourly) Conditions
00:00 42.7 °F /  5.9 °C 41.4 °F /  5.2 °C 30.23in /  1023.6hPa North 10.0mph /  16.1km/h 12.0mph /  19.3km/h 95% 0.30in /  7.62mm
00:01 42.6 °F /  5.9 °C 41.3 °F /  5.2 °C 30.23in /  1023.6hPa North 6.0mph /  9.7km/h 11.0mph /  17.7km/h 95% 0.30in /  7.62mm
00:06 42.4 °F /  5.8 °C 41.1 °F /  5.1 °C 30.24in /  1023.9hPa NNW 5.0mph /  8km/h 8.0mph /  12.9km/h 95% 0.28in /  7.11mm
00:11 42.2 °F /  5.7 °C 41.1 °F /  5.1 °C 30.26in /  1024.6hPa NW 7.0mph /  11.3km/h 12.0mph /  19.3km/h 96% 0.32in /  8.13mm
00:16 42.1 °F /  5.6 °C 41.0 °F /  5 °C 30.26in /  1024.6hPa NW 8.0mph /  12.9km/h 11.0mph /  17.7km/h 96% 0.42in /  10.67mm
00:21 42.0 °F /  5.6 °C 40.9 °F /  4.9 °C 30.26in /  1024.6hPa NNW 5.0mph /  8km/h 9.0mph /  14.5km/h 96% 0.22in /  5.59mm
00:26 41.8 °F /  5.4 °C 40.8 °F /  4.9 °C 30.25in /  1024.3hPa NW 8.0mph /  12.9km/h 12.0mph /  19.3km/h 96% 0.30in /  7.62mm
00:31 41.5 °F /  5.3 °C 40.5 °F /  4.7 °C 30.25in /  1024.3hPa NNE 9.0mph /  14.5km/h 13.0mph /  20.9km/h 96% 0.22in /  5.59mm
00:36 41.2 °F /  5.1 °C 39.9 °F /  4.4 °C 30.24in /  1023.9hPa NNE 6.0mph /  9.7km/h 12.0mph /  19.3km/h 95% 0.18in /  4.57mm
00:42 40.8 °F /  4.9 °C 39.5 °F /  4.2 °C 30.24in /  1023.9hPa NE 8.0mph /  12.9km/h 9.0mph /  14.5km/h 95% 0.20in /  5.08mm
00:47 40.7 °F /  4.8 °C 39.4 °F /  4.1 °C 30.24in /  1023.9hPa NE 6.0mph /  9.7km/h 7.0mph /  11.3km/h 95% 0.13in /  3.3mm
00:52 40.6 °F /  4.8 °C 39.3 °F /  4.1 °C 30.24in /  1023.9hPa NNE 5.0mph /  8km/h 9.0mph /  14.5km/h 95% 0.11in /  2.79mm
00:57 40.5 °F /  4.7 °C 39.2 °F /  4 °C 30.24in /  1023.9hPa NW 5.0mph /  8km/h 7.0mph /  11.3km/h 95% 0.10in /  2.54mm
01:02 40.5 °F /  4.7 °C 39.2 °F /  4 °C 30.25in /  1024.3hPa NNE 9.0mph /  14.5km/h 14.0mph /  22.5km/h 95% 0.05in /  1.27mm
01:07 40.4 °F /  4.7 °C 38.8 °F /  3.8 °C 30.25in /  1024.3hPa North 7.0mph /  11.3km/h 15.0mph /  24.1km/h 94% 0.04in /  1.02mm
01:12 40.4 °F /  4.7 °C 38.8 °F /  3.8 °C 30.25in /  1024.3hPa NNW 3.0mph /  4.8km/h 9.0mph /  14.5km/h 94% 0.04in /  1.02mm
01:17 40.4 °F /  4.7 °C 38.8 °F /  3.8 °C 30.24in /  1023.9hPa ENE 7.0mph /  11.3km/h 10.0mph /  16.1km/h 94% 0.04in /  1.02mm
01:22 40.4 °F /  4.7 °C 38.8 °F /  3.8 °C 30.24in /  1023.9hPa NE 4.0mph /  6.4km/h 7.0mph /  11.3km/h 94% 0.04in /  1.02mm
01:27 40.5 °F /  4.7 °C 38.9 °F /  3.8 °C 30.25in /  1024.3hPa NNE 9.0mph /  14.5km/h 9.0mph /  14.5km/h 94% 0.00in /  0mm
01:32 40.5 °F /  4.7 °C 38.9 °F /  3.8 °C 30.25in /  1024.3hPa NNW 7.0mph /  11.3km/h 11.0mph /  17.7km/h 94% 0.00in /  0mm
01:37 40.6 °F /  4.8 °C 39.0 °F /  3.9 °C 30.25in /  1024.3hPa North 7.0mph /  11.3km/h 12.0mph /  19.3km/h 94% 0.00in /  0mm
01:42 40.6 °F /  4.8 °C 39.0 °F /  3.9 °C 30.25in /  1024.3hPa North 6.0mph /  9.7km/h 12.0mph /  19.3km/h 94% 0.00in /  0mm
01:47 40.6 °F /  4.8 °C 39.0 °F /  3.9 °C 30.25in /  1024.3hPa North 11.0mph /  17.7km/h 12.0mph /  19.3km/h 94% 0.00in /  0mm
01:52 40.6 °F /  4.8 °C 39.0 °F /  3.9 °C 30.25in /  1024.3hPa NNE 8.0mph /  12.9km/h 11.0mph /  17.7km/h 94% 0.00in /  0mm
01:57 40.7 °F /  4.8 °C 39.1 °F /  3.9 °C 30.25in /  1024.3hPa NE 8.0mph /  12.9km/h 13.0mph /  20.9km/h 94% 0.00in /  0mm
02:02 40.7 °F /  4.8 °C 38.8 °F /  3.8 °C 30.25in /  1024.3hPa North 8.0mph /  12.9km/h 10.0mph /  16.1km/h 93% 0.00in /  0mm
02:07 40.7 °F /  4.8 °C 38.8 °F /  3.8 °C 30.25in /  1024.3hPa NNE 7.0mph /  11.3km/h 14.0mph /  22.5km/h 93% 0.00in /  0mm
02:12 40.7 °F /  4.8 °C 38.6 °F /  3.7 °C 30.24in /  1023.9hPa NNW 5.0mph /  8km/h 11.0mph /  17.7km/h 92% 0.00in /  0mm
02:17 40.8 °F /  4.9 °C 38.7 °F /  3.7 °C 30.24in /  1023.9hPa NNE 6.0mph /  9.7km/h 11.0mph /  17.7km/h 92% 0.00in /  0mm
02:22 40.8 °F /  4.9 °C 38.4 °F /  3.6 °C 30.24in /  1023.9hPa NNE 5.0mph /  8km/h 15.0mph /  24.1km/h 91% 0.00in /  0mm
02:27 40.8 °F /  4.9 °C 38.4 °F /  3.6 °C 30.24in /  1023.9hPa NNE 9.0mph /  14.5km/h 15.0mph /  24.1km/h 91% 0.00in /  0mm
02:32 40.9 °F /  4.9 °C 38.5 °F /  3.6 °C 30.24in /  1023.9hPa NNE 10.0mph /  16.1km/h 13.0mph /  20.9km/h 91% 0.00in /  0mm
02:37 40.9 °F /  4.9 °C 38.5 °F /  3.6 °C 30.24in /  1023.9hPa NNE 10.0mph /  16.1km/h 15.0mph /  24.1km/h 91% 0.00in /  0mm
02:42 40.9 °F /  4.9 °C 38.5 °F /  3.6 °C 30.24in /  1023.9hPa NNW 9.0mph /  14.5km/h 17.0mph /  27.4km/h 91% 0.00in /  0mm
02:47 40.8 °F /  4.9 °C 38.7 °F /  3.7 °C 30.24in /  1023.9hPa NNE 10.0mph /  16.1km/h 10.0mph /  16.1km/h 92% 0.00in /  0mm
02:52 40.7 °F /  4.8 °C 38.6 °F /  3.7 °C 30.23in /  1023.6hPa NW 9.0mph /  14.5km/h 12.0mph /  19.3km/h 92% 0.00in /  0mm
02:57 40.7 °F /  4.8 °C 38.3 °F /  3.5 °C 30.24in /  1023.9hPa NNW 8.0mph /  12.9km/h 17.0mph /  27.4km/h 91% 0.00in /  0mm
03:02 40.7 °F /  4.8 °C 38.6 °F /  3.7 °C 30.24in /  1023.9hPa NNW 8.0mph /  12.9km/h 14.0mph /  22.5km/h 92% 0.00in /  0mm
03:07 40.7 °F /  4.8 °C 38.6 °F /  3.7 °C 30.25in /  1024.3hPa NNW 9.0mph /  14.5km/h 16.0mph /  25.7km/h 92% 0.00in /  0mm
03:12 40.7 °F /  4.8 °C 38.6 °F /  3.7 °C 30.25in /  1024.3hPa North 12.0mph /  19.3km/h 16.0mph /  25.7km/h 92% 0.00in /  0mm
03:17 40.7 °F /  4.8 °C 38.6 °F /  3.7 °C 30.25in /  1024.3hPa NNW 8.0mph /  12.9km/h 12.0mph /  19.3km/h 92% 0.00in /  0mm
03:22 40.6 °F /  4.8 °C 38.2 °F /  3.4 °C 30.25in /  1024.3hPa North 11.0mph /  17.7km/h 17.0mph /  27.4km/h 91% 0.00in /  0mm
03:28 40.6 °F /  4.8 °C 38.2 °F /  3.4 °C 30.25in /  1024.3hPa NNW 10.0mph /  16.1km/h 13.0mph /  20.9km/h 91% 0.00in /  0mm
03:33 40.6 °F /  4.8 °C 38.2 °F /  3.4 °C 30.25in /  1024.3hPa NNE 7.0mph /  11.3km/h 12.0mph /  19.3km/h 91% 0.00in /  0mm
03:38 40.6 °F /  4.8 °C 37.9 °F /  3.3 °C 30.24in /  1023.9hPa NNE 10.0mph /  16.1km/h 12.0mph /  19.3km/h 90% 0.00in /  0mm
03:43 40.6 °F /  4.8 °C 38.2 °F /  3.4 °C 30.24in /  1023.9hPa North 7.0mph /  11.3km/h 11.0mph /  17.7km/h 91% 0.00in /  0mm
03:48 40.5 °F /  4.7 °C 37.8 °F /  3.2 °C 30.24in /  1023.9hPa North 7.0mph /  11.3km/h 12.0mph /  19.3km/h 90% 0.00in /  0mm
03:53 40.4 °F /  4.7 °C 37.7 °F /  3.2 °C 30.24in /  1023.9hPa North 11.0mph /  17.7km/h 14.0mph /  22.5km/h 90% 0.00in /  0mm
03:58 40.4 °F /  4.7 °C 37.7 °F /  3.2 °C 30.25in /  1024.3hPa NNW 9.0mph /  14.5km/h 14.0mph /  22.5km/h 90% 0.00in /  0mm
04:03 40.3 °F /  4.6 °C 37.6 °F /  3.1 °C 30.25in /  1024.3hPa North 16.0mph /  25.7km/h 16.0mph /  25.7km/h 90% 0.00in /  0mm
04:08 40.2 °F /  4.6 °C 37.5 °F /  3.1 °C 30.26in /  1024.6hPa North 11.0mph /  17.7km/h 14.0mph /  22.5km/h 90% 0.00in /  0mm
04:13 40.1 °F /  4.5 °C 37.4 °F /  3 °C 30.26in /  1024.6hPa NNW 8.0mph /  12.9km/h 15.0mph /  24.1km/h 90% 0.00in /  0mm
04:18 40.0 °F /  4.4 °C 37.3 °F /  2.9 °C 30.27in /  1024.9hPa NNW 8.0mph /  12.9km/h 11.0mph /  17.7km/h 90% 0.00in /  0mm
04:23 39.9 °F /  4.4 °C 37.2 °F /  2.9 °C 30.27in /  1024.9hPa North 12.0mph /  19.3km/h 12.0mph /  19.3km/h 90% 0.00in /  0mm
04:28 39.9 °F /  4.4 °C 36.9 °F /  2.7 °C 30.27in /  1024.9hPa North 8.0mph /  12.9km/h 14.0mph /  22.5km/h 89% 0.00in /  0mm
04:33 39.8 °F /  4.3 °C 36.8 °F /  2.7 °C 30.28in /  1025.3hPa North 17.0mph /  27.4km/h 17.0mph /  27.4km/h 89% 0.00in /  0mm
04:38 39.7 °F /  4.3 °C 36.7 °F /  2.6 °C 30.28in /  1025.3hPa NNW 6.0mph /  9.7km/h 13.0mph /  20.9km/h 89% 0.00in /  0mm
04:43 39.6 °F /  4.2 °C 36.6 °F /  2.6 °C 30.29in /  1025.6hPa NNE 7.0mph /  11.3km/h 14.0mph /  22.5km/h 89% 0.00in /  0mm
04:48 39.5 °F /  4.2 °C 36.5 °F /  2.5 °C 30.29in /  1025.6hPa NNE 12.0mph /  19.3km/h 16.0mph /  25.7km/h 89% 0.00in /  0mm
04:53 39.4 °F /  4.1 °C 36.4 °F /  2.4 °C 30.29in /  1025.6hPa North 16.0mph /  25.7km/h 16.0mph /  25.7km/h 89% 0.00in /  0mm
04:58 39.4 °F /  4.1 °C 36.4 °F /  2.4 °C 30.29in /  1025.6hPa NNE 15.0mph /  24.1km/h 15.0mph /  24.1km/h 89% 0.00in /  0mm
05:03 39.3 °F /  4.1 °C 36.3 °F /  2.4 °C 30.28in /  1025.3hPa NNW 18.0mph /  29km/h 18.0mph /  29km/h 89% 0.00in /  0mm
05:08 39.3 °F /  4.1 °C 36.3 °F /  2.4 °C 30.28in /  1025.3hPa NNE 12.0mph /  19.3km/h 18.0mph /  29km/h 89% 0.00in /  0mm
05:13 39.2 °F /  4 °C 36.2 °F /  2.3 °C 30.29in /  1025.6hPa North 13.0mph /  20.9km/h 16.0mph /  25.7km/h 89% 0.00in /  0mm
05:18 39.2 °F /  4 °C 36.2 °F /  2.3 °C 30.29in /  1025.6hPa NNW 9.0mph /  14.5km/h 18.0mph /  29km/h 89% 0.00in /  0mm
05:23 39.1 °F /  3.9 °C 36.1 °F /  2.3 °C 30.30in /  1026hPa North 12.0mph /  19.3km/h 16.0mph /  25.7km/h 89% 0.00in /  0mm
05:28 39.0 °F /  3.9 °C 35.8 °F /  2.1 °C 30.30in /  1026hPa North 13.0mph /  20.9km/h 17.0mph /  27.4km/h 88% 0.00in /  0mm
05:33 39.0 °F /  3.9 °C 36.0 °F /  2.2 °C 30.31in /  1026.3hPa NNW 9.0mph /  14.5km/h 15.0mph /  24.1km/h 89% 0.00in /  0mm
05:38 38.9 °F /  3.8 °C 35.9 °F /  2.2 °C 30.32in /  1026.6hPa NNE 8.0mph /  12.9km/h 18.0mph /  29km/h 89% 0.00in /  0mm
05:43 38.8 °F /  3.8 °C 35.8 °F /  2.1 °C 30.32in /  1026.6hPa NNE 12.0mph /  19.3km/h 15.0mph /  24.1km/h 89% 0.00in /  0mm
05:48 38.8 °F /  3.8 °C 35.6 °F /  2 °C 30.32in /  1026.6hPa North 7.0mph /  11.3km/h 17.0mph /  27.4km/h 88% 0.00in /  0mm
05:53 38.7 °F /  3.7 °C 35.5 °F /  1.9 °C 30.31in /  1026.3hPa NNW 13.0mph /  20.9km/h 15.0mph /  24.1km/h 88% 0.00in /  0mm
05:58 38.6 °F /  3.7 °C 35.4 °F /  1.9 °C 30.32in /  1026.6hPa North 10.0mph /  16.1km/h 19.0mph /  30.6km/h 88% 0.00in /  0mm
06:03 38.6 °F /  3.7 °C 35.4 °F /  1.9 °C 30.33in /  1027hPa NNW 13.0mph /  20.9km/h 16.0mph /  25.7km/h 88% 0.00in /  0mm
06:08 38.5 °F /  3.6 °C 35.3 °F /  1.8 °C 30.33in /  1027hPa NNE 17.0mph /  27.4km/h 20.0mph /  32.2km/h 88% 0.00in /  0mm
06:14 38.5 °F /  3.6 °C 35.3 °F /  1.8 °C 30.33in /  1027hPa North 11.0mph /  17.7km/h 17.0mph /  27.4km/h 88% 0.00in /  0mm
06:18 38.4 °F /  3.6 °C 35.2 °F /  1.8 °C 30.33in /  1027hPa NNE 17.0mph /  27.4km/h 17.0mph /  27.4km/h 88% 0.00in /  0mm
06:24 38.3 °F /  3.5 °C 35.1 °F /  1.7 °C 30.33in /  1027hPa NNE 9.0mph /  14.5km/h 14.0mph /  22.5km/h 88% 0.00in /  0mm
06:29 38.2 °F /  3.4 °C 34.7 °F /  1.5 °C 30.33in /  1027hPa North 6.0mph /  9.7km/h 15.0mph /  24.1km/h 87% 0.00in /  0mm
06:34 38.1 °F /  3.4 °C 34.6 °F /  1.4 °C 30.33in /  1027hPa NNE 9.0mph /  14.5km/h 14.0mph /  22.5km/h 87% 0.00in /  0mm
06:39 38.0 °F /  3.3 °C 34.5 °F /  1.4 °C 30.34in /  1027.3hPa NNW 9.0mph /  14.5km/h 16.0mph /  25.7km/h 87% 0.00in /  0mm
06:44 38.0 °F /  3.3 °C 34.5 °F /  1.4 °C 30.34in /  1027.3hPa North 6.0mph /  9.7km/h 16.0mph /  25.7km/h 87% 0.00in /  0mm
06:49 37.9 °F /  3.3 °C 34.1 °F /  1.2 °C 30.35in /  1027.7hPa North 6.0mph /  9.7km/h 16.0mph /  25.7km/h 86% 0.00in /  0mm
06:54 37.8 °F /  3.2 °C 34.0 °F /  1.1 °C 30.35in /  1027.7hPa NNW 10.0mph /  16.1km/h 17.0mph /  27.4km/h 86% 0.00in /  0mm
06:59 37.9 °F /  3.3 °C 34.1 °F /  1.2 °C 30.35in /  1027.7hPa NNW 13.0mph /  20.9km/h 15.0mph /  24.1km/h 86% 0.00in /  0mm
07:04 37.8 °F /  3.2 °C 34.0 °F /  1.1 °C 30.36in /  1028hPa NNE 7.0mph /  11.3km/h 16.0mph /  25.7km/h 86% 0.00in /  0mm
07:09 37.8 °F /  3.2 °C 33.7 °F /  0.9 °C 30.36in /  1028hPa NNE 7.0mph /  11.3km/h 14.0mph /  22.5km/h 85% 0.00in /  0mm
07:14 37.7 °F /  3.2 °C 33.6 °F /  0.9 °C 30.36in /  1028hPa North 15.0mph /  24.1km/h 15.0mph /  24.1km/h 85% 0.00in /  0mm
07:19 37.7 °F /  3.2 °C 33.0 °F /  0.6 °C 30.36in /  1028hPa NNE 13.0mph /  20.9km/h 17.0mph /  27.4km/h 83% 0.00in /  0mm
07:24 37.7 °F /  3.2 °C 33.0 °F /  0.6 °C 30.35in /  1027.7hPa NNE 12.0mph /  19.3km/h 14.0mph /  22.5km/h 83% 0.00in /  0mm
07:29 37.7 °F /  3.2 °C 33.0 °F /  0.6 °C 30.36in /  1028hPa NNE 12.0mph /  19.3km/h 14.0mph /  22.5km/h 83% 0.00in /  0mm
07:34 37.7 °F /  3.2 °C 33.0 °F /  0.6 °C 30.36in /  1028hPa North 11.0mph /  17.7km/h 17.0mph /  27.4km/h 83% 0.00in /  0mm
07:39 37.8 °F /  3.2 °C 32.5 °F /  0.3 °C 30.36in /  1028hPa NNE 5.0mph /  8km/h 17.0mph /  27.4km/h 81% 0.00in /  0mm
07:44 37.8 °F /  3.2 °C 32.8 °F /  0.4 °C 30.36in /  1028hPa North 16.0mph /  25.7km/h 16.0mph /  25.7km/h 82% 0.00in /  0mm
07:49 37.8 °F /  3.2 °C 32.5 °F /  0.3 °C 30.37in /  1028.3hPa NNW 7.0mph /  11.3km/h 15.0mph /  24.1km/h 81% 0.00in /  0mm
07:54 37.9 °F /  3.3 °C 32.6 °F /  0.3 °C 30.37in /  1028.3hPa North 10.0mph /  16.1km/h 13.0mph /  20.9km/h 81% 0.00in /  0mm
07:59 37.9 °F /  3.3 °C 32.3 °F /  0.2 °C 30.38in /  1028.7hPa North 10.0mph /  16.1km/h 15.0mph /  24.1km/h 80% 0.00in /  0mm
08:04 38.0 °F /  3.3 °C 32.1 °F /  0.1 °C 30.38in /  1028.7hPa NNE 12.0mph /  19.3km/h 16.0mph /  25.7km/h 79% 0.00in /  0mm
08:09 38.1 °F /  3.4 °C 32.2 °F /  0.1 °C 30.38in /  1028.7hPa North 14.0mph /  22.5km/h 15.0mph /  24.1km/h 79% 0.00in /  0mm
08:14 38.2 °F /  3.4 °C 32.0 °F /  0 °C 30.38in /  1028.7hPa North 7.0mph /  11.3km/h 12.0mph /  19.3km/h 78% 0.00in /  0mm
08:19 38.3 °F /  3.5 °C 32.0 °F /  0 °C 30.39in /  1029hPa NNE 7.0mph /  11.3km/h 15.0mph /  24.1km/h 78% 0.00in /  0mm
08:24 38.4 °F /  3.6 °C 31.8 °F /  -0.1 °C 30.38in /  1028.7hPa NNE 10.0mph /  16.1km/h 15.0mph /  24.1km/h 77% 0.00in /  0mm
08:29 38.5 °F /  3.6 °C 31.9 °F /  -0.1 °C 30.38in /  1028.7hPa NE 8.0mph /  12.9km/h 12.0mph /  19.3km/h 77% 0.00in /  0mm
08:34 38.7 °F /  3.7 °C 31.8 °F /  -0.1 °C 30.38in /  1028.7hPa North 8.0mph /  12.9km/h 12.0mph /  19.3km/h 76% 0.00in /  0mm
08:39 38.9 °F /  3.8 °C 31.7 °F /  -0.2 °C 30.39in /  1029hPa NNE 13.0mph /  20.9km/h 14.0mph /  22.5km/h 75% 0.00in /  0mm
08:44 39.1 °F /  3.9 °C 31.5 °F /  -0.3 °C 30.39in /  1029hPa NNE 8.0mph /  12.9km/h 13.0mph /  20.9km/h 74% 0.00in /  0mm
08:49 39.4 °F /  4.1 °C 31.5 °F /  -0.3 °C 30.39in /  1029hPa NE 6.0mph /  9.7km/h 12.0mph /  19.3km/h 73% 0.00in /  0mm
08:54 39.7 °F /  4.3 °C 31.1 °F /  -0.5 °C 30.39in /  1029hPa NNE 6.0mph /  9.7km/h 12.0mph /  19.3km/h 71% 0.00in /  0mm
08:59 40.0 °F /  4.4 °C 30.3 °F /  -0.9 °C 30.40in /  1029.3hPa NNE 8.0mph /  12.9km/h 14.0mph /  22.5km/h 68% 0.00in /  0mm
09:04 40.3 °F /  4.6 °C 31.3 °F /  -0.4 °C 30.40in /  1029.3hPa North 6.0mph /  9.7km/h 13.0mph /  20.9km/h 70% 0.00in /  0mm
09:09 40.6 °F /  4.8 °C 31.2 °F /  -0.4 °C 30.40in /  1029.3hPa NNE 6.0mph /  9.7km/h 16.0mph /  25.7km/h 69% 0.00in /  0mm
09:14 40.8 °F /  4.9 °C 30.0 °F /  -1.1 °C 30.40in /  1029.3hPa North 8.0mph /  12.9km/h 14.0mph /  22.5km/h 65% 0.00in /  0mm
09:20 41.1 °F /  5.1 °C 29.9 °F /  -1.2 °C 30.40in /  1029.3hPa NNW 8.0mph /  12.9km/h 13.0mph /  20.9km/h 64% 0.00in /  0mm
09:25 41.3 °F /  5.2 °C 29.3 °F /  -1.5 °C 30.40in /  1029.3hPa NNE 7.0mph /  11.3km/h 15.0mph /  24.1km/h 62% 0.00in /  0mm
09:30 41.6 °F /  5.3 °C 29.6 °F /  -1.3 °C 30.41in /  1029.7hPa NE 8.0mph /  12.9km/h 11.0mph /  17.7km/h 62% 0.00in /  0mm
09:35 41.9 °F /  5.5 °C 29.5 °F /  -1.4 °C 30.41in /  1029.7hPa North 8.0mph /  12.9km/h 15.0mph /  24.1km/h 61% 0.00in /  0mm
09:40 42.2 °F /  5.7 °C 28.9 °F /  -1.7 °C 30.41in /  1029.7hPa NNE 7.0mph /  11.3km/h 13.0mph /  20.9km/h 59% 0.00in /  0mm
09:45 42.4 °F /  5.8 °C 29.5 °F /  -1.4 °C 30.41in /  1029.7hPa NE 10.0mph /  16.1km/h 16.0mph /  25.7km/h 60% 0.00in /  0mm
09:50 42.5 °F /  5.8 °C 29.2 °F /  -1.6 °C 30.41in /  1029.7hPa NNW 5.0mph /  8km/h 14.0mph /  22.5km/h 59% 0.00in /  0mm
09:55 42.6 °F /  5.9 °C 28.9 °F /  -1.7 °C 30.41in /  1029.7hPa NNE 15.0mph /  24.1km/h 18.0mph /  29km/h 58% 0.00in /  0mm
10:00 42.8 °F /  6 °C 29.9 °F /  -1.2 °C 30.41in /  1029.7hPa NNE 5.0mph /  8km/h 11.0mph /  17.7km/h 60% 0.00in /  0mm
10:05 43.0 °F /  6.1 °C 29.2 °F /  -1.6 °C 30.41in /  1029.7hPa NNE 6.0mph /  9.7km/h 14.0mph /  22.5km/h 58% 0.00in /  0mm
10:06 43.1 °F /  6.2 °C 29.3 °F /  -1.5 °C 30.41in /  1029.7hPa NNW 4.0mph /  6.4km/h 14.0mph /  22.5km/h 58% 0.00in /  0mm
10:11 43.6 °F /  6.4 °C 29.4 °F /  -1.4 °C 30.41in /  1029.7hPa NNE 7.0mph /  11.3km/h 12.0mph /  19.3km/h 57% 0.00in /  0mm
10:16 43.9 °F /  6.6 °C 30.1 °F /  -1.1 °C 30.41in /  1029.7hPa NNE 8.0mph /  12.9km/h 14.0mph /  22.5km/h 58% 0.00in /  0mm
10:21 44.1 °F /  6.7 °C 29.0 °F /  -1.7 °C 30.41in /  1029.7hPa NNE 13.0mph /  20.9km/h 15.0mph /  24.1km/h 55% 0.00in /  0mm
10:26 44.3 °F /  6.8 °C 29.2 °F /  -1.6 °C 30.41in /  1029.7hPa North 13.0mph /  20.9km/h 16.0mph /  25.7km/h 55% 0.00in /  0mm
10:31 44.5 °F /  6.9 °C 28.9 °F /  -1.7 °C 30.41in /  1029.7hPa North 12.0mph /  19.3km/h 17.0mph /  27.4km/h 54% 0.00in /  0mm
10:36 44.4 °F /  6.9 °C 27.9 °F /  -2.3 °C 30.42in /  1030hPa NNE 18.0mph /  29km/h 18.0mph /  29km/h 52% 0.00in /  0mm
10:41 44.4 °F /  6.9 °C 28.8 °F /  -1.8 °C 30.42in /  1030hPa NNE 13.0mph /  20.9km/h 18.0mph /  29km/h 54% 0.00in /  0mm
10:46 44.7 °F /  7.1 °C 29.5 °F /  -1.4 °C 30.42in /  1030hPa NNE 10.0mph /  16.1km/h 15.0mph /  24.1km/h 55% 0.00in /  0mm
10:51 44.9 °F /  7.2 °C 30.2 °F /  -1 °C 30.42in /  1030hPa NNE 7.0mph /  11.3km/h 13.0mph /  20.9km/h 56% 0.00in /  0mm
10:56 45.3 °F /  7.4 °C 30.1 °F /  -1.1 °C 30.42in /  1030hPa NNE 13.0mph /  20.9km/h 16.0mph /  25.7km/h 55% 0.00in /  0mm
11:01 45.7 °F /  7.6 °C 30.9 °F /  -0.6 °C 30.42in /  1030hPa NNW 17.0mph /  27.4km/h 17.0mph /  27.4km/h 56% 0.00in /  0mm
11:06 45.9 °F /  7.7 °C 30.7 °F /  -0.7 °C 30.42in /  1030hPa North 12.0mph /  19.3km/h 16.0mph /  25.7km/h 55% 0.00in /  0mm
11:11 46.0 °F /  7.8 °C 29.4 °F /  -1.4 °C 30.42in /  1030hPa NNE 6.0mph /  9.7km/h 15.0mph /  24.1km/h 52% 0.00in /  0mm
11:16 46.7 °F /  8.2 °C 31.4 °F /  -0.3 °C 30.42in /  1030hPa NNE 13.0mph /  20.9km/h 17.0mph /  27.4km/h 55% 0.00in /  0mm
11:21 46.7 °F /  8.2 °C 30.5 °F /  -0.8 °C 30.42in /  1030hPa NNE 9.0mph /  14.5km/h 17.0mph /  27.4km/h 53% 0.00in /  0mm
11:26 46.6 °F /  8.1 °C 29.9 °F /  -1.2 °C 30.41in /  1029.7hPa NNE 12.0mph /  19.3km/h 17.0mph /  27.4km/h 52% 0.00in /  0mm
11:31 46.8 °F /  8.2 °C 29.2 °F /  -1.6 °C 30.42in /  1030hPa NE 11.0mph /  17.7km/h 18.0mph /  29km/h 50% 0.00in /  0mm
11:36 47.1 °F /  8.4 °C 29.9 °F /  -1.2 °C 30.41in /  1029.7hPa NNE 7.0mph /  11.3km/h 19.0mph /  30.6km/h 51% 0.00in /  0mm
11:42 47.7 °F /  8.7 °C 32.3 °F /  0.2 °C 30.42in /  1030hPa North 12.0mph /  19.3km/h 12.0mph /  19.3km/h 55% 0.00in /  0mm
11:47 47.8 °F /  8.8 °C 31.0 °F /  -0.6 °C 30.42in /  1030hPa NNW 6.0mph /  9.7km/h 16.0mph /  25.7km/h 52% 0.00in /  0mm
11:52 48.5 °F /  9.2 °C 30.7 °F /  -0.7 °C 30.42in /  1030hPa North 11.0mph /  17.7km/h 16.0mph /  25.7km/h 50% 0.00in /  0mm
11:57 49.1 °F /  9.5 °C 31.8 °F /  -0.1 °C 30.42in /  1030hPa North 11.0mph /  17.7km/h 16.0mph /  25.7km/h 51% 0.00in /  0mm
12:02 49.2 °F /  9.6 °C 30.4 °F /  -0.9 °C 30.42in /  1030hPa North 12.0mph /  19.3km/h 17.0mph /  27.4km/h 48% 0.00in /  0mm
12:07 49.5 °F /  9.7 °C 32.1 °F /  0.1 °C 30.42in /  1030hPa NNW 12.0mph /  19.3km/h 14.0mph /  22.5km/h 51% 0.00in /  0mm
12:12 49.8 °F /  9.9 °C 30.4 °F /  -0.9 °C 30.41in /  1029.7hPa NNE 11.0mph /  17.7km/h 16.0mph /  25.7km/h 47% 0.00in /  0mm
12:17 49.7 °F /  9.8 °C 29.8 °F /  -1.2 °C 30.41in /  1029.7hPa North 10.0mph /  16.1km/h 18.0mph /  29km/h 46% 0.00in /  0mm
12:22 50.1 °F /  10.1 °C 30.7 °F /  -0.7 °C 30.41in /  1029.7hPa NNW 11.0mph /  17.7km/h 16.0mph /  25.7km/h 47% 0.00in /  0mm
12:27 50.5 °F /  10.3 °C 31.0 °F /  -0.6 °C 30.41in /  1029.7hPa North 10.0mph /  16.1km/h 17.0mph /  27.4km/h 47% 0.00in /  0mm
12:32 50.4 °F /  10.2 °C 31.0 °F /  -0.6 °C 30.41in /  1029.7hPa NE 12.0mph /  19.3km/h 16.0mph /  25.7km/h 47% 0.00in /  0mm
12:37 51.2 °F /  10.7 °C 34.7 °F /  1.5 °C 30.41in /  1029.7hPa NNE 10.0mph /  16.1km/h 14.0mph /  22.5km/h 53% 0.00in /  0mm
12:42 51.7 °F /  10.9 °C 32.1 °F /  0.1 °C 30.41in /  1029.7hPa North 15.0mph /  24.1km/h 18.0mph /  29km/h 47% 0.00in /  0mm
12:47 51.8 °F /  11 °C 33.3 °F /  0.7 °C 30.41in /  1029.7hPa North 9.0mph /  14.5km/h 15.0mph /  24.1km/h 49% 0.00in /  0mm
12:52 52.3 °F /  11.3 °C 33.2 °F /  0.7 °C 30.41in /  1029.7hPa North 13.0mph /  20.9km/h 15.0mph /  24.1km/h 48% 0.00in /  0mm
12:57 52.3 °F /  11.3 °C 34.7 °F /  1.5 °C 30.41in /  1029.7hPa North 13.0mph /  20.9km/h 18.0mph /  29km/h 51% 0.00in /  0mm
13:02 52.2 °F /  11.2 °C 31.0 °F /  -0.6 °C 30.41in /  1029.7hPa North 9.0mph /  14.5km/h 20.0mph /  32.2km/h 44% 0.00in /  0mm
13:07 52.3 °F /  11.3 °C 34.2 °F /  1.2 °C 30.40in /  1029.3hPa North 11.0mph /  17.7km/h 15.0mph /  24.1km/h 50% 0.00in /  0mm
13:12 52.8 °F /  11.6 °C 34.7 °F /  1.5 °C 30.40in /  1029.3hPa NE 9.0mph /  14.5km/h 12.0mph /  19.3km/h 50% 0.00in /  0mm
13:17 52.5 °F /  11.4 °C 33.9 °F /  1.1 °C 30.39in /  1029hPa NE 20.0mph /  32.2km/h 20.0mph /  32.2km/h 49% 0.00in /  0mm
13:23 52.5 °F /  11.4 °C 33.4 °F /  0.8 °C 30.39in /  1029hPa North 9.0mph /  14.5km/h 15.0mph /  24.1km/h 48% 0.00in /  0mm
13:28 52.8 °F /  11.6 °C 32.6 °F /  0.3 °C 30.39in /  1029hPa North 15.0mph /  24.1km/h 19.0mph /  30.6km/h 46% 0.00in /  0mm
13:33 52.8 °F /  11.6 °C 32.6 °F /  0.3 °C 30.39in /  1029hPa NNE 7.0mph /  11.3km/h 14.0mph /  22.5km/h 46% 0.00in /  0mm
13:38 53.3 °F /  11.8 °C 32.5 °F /  0.3 °C 30.39in /  1029hPa NNE 7.0mph /  11.3km/h 15.0mph /  24.1km/h 45% 0.00in /  0mm
13:43 53.7 °F /  12.1 °C 34.5 °F /  1.4 °C 30.38in /  1028.7hPa NE 6.0mph /  9.7km/h 15.0mph /  24.1km/h 48% 0.00in /  0mm
13:48 53.6 °F /  12 °C 34.4 °F /  1.3 °C 30.38in /  1028.7hPa North 9.0mph /  14.5km/h 14.0mph /  22.5km/h 48% 0.00in /  0mm
13:53 53.9 °F /  12.2 °C 33.1 °F /  0.6 °C 30.38in /  1028.7hPa NNW 8.0mph /  12.9km/h 17.0mph /  27.4km/h 45% 0.00in /  0mm
13:58 54.3 °F /  12.4 °C 32.9 °F /  0.5 °C 30.38in /  1028.7hPa NNW 10.0mph /  16.1km/h 19.0mph /  30.6km/h 44% 0.00in /  0mm
14:03 54.6 °F /  12.6 °C 35.3 °F /  1.8 °C 30.38in /  1028.7hPa North 10.0mph /  16.1km/h 13.0mph /  20.9km/h 48% 0.00in /  0mm
14:08 55.0 °F /  12.8 °C 32.3 °F /  0.2 °C 30.38in /  1028.7hPa North 17.0mph /  27.4km/h 20.0mph /  32.2km/h 42% 0.00in /  0mm
14:13 55.0 °F /  12.8 °C 32.9 °F /  0.5 °C 30.38in /  1028.7hPa NNW 14.0mph /  22.5km/h 16.0mph /  25.7km/h 43% 0.00in /  0mm
14:18 55.3 °F /  12.9 °C 34.3 °F /  1.3 °C 30.37in /  1028.3hPa North 11.0mph /  17.7km/h 11.0mph /  17.7km/h 45% 0.00in /  0mm
14:23 55.4 °F /  13 °C 33.3 °F /  0.7 °C 30.38in /  1028.7hPa NW 8.0mph /  12.9km/h 16.0mph /  25.7km/h 43% 0.00in /  0mm
14:28 56.1 °F /  13.4 °C 35.6 °F /  2 °C 30.37in /  1028.3hPa NNE 8.0mph /  12.9km/h 10.0mph /  16.1km/h 46% 0.00in /  0mm
14:33 56.1 °F /  13.4 °C 33.3 °F /  0.7 °C 30.37in /  1028.3hPa NNE 10.0mph /  16.1km/h 15.0mph /  24.1km/h 42% 0.00in /  0mm
14:38 55.7 °F /  13.2 °C 33.0 °F /  0.6 °C 30.37in /  1028.3hPa North 11.0mph /  17.7km/h 18.0mph /  29km/h 42% 0.00in /  0mm
14:43 56.1 °F /  13.4 °C 32.7 °F /  0.4 °C 30.37in /  1028.3hPa North 8.0mph /  12.9km/h 14.0mph /  22.5km/h 41% 0.00in /  0mm
14:48 56.3 °F /  13.5 °C 32.9 °F /  0.5 °C 30.36in /  1028hPa NNE 11.0mph /  17.7km/h 16.0mph /  25.7km/h 41% 0.00in /  0mm
14:53 56.3 °F /  13.5 °C 31.7 °F /  -0.2 °C 30.36in /  1028hPa NNW 9.0mph /  14.5km/h 15.0mph /  24.1km/h 39% 0.00in /  0mm
14:58 57.0 °F /  13.9 °C 34.8 °F /  1.6 °C 30.37in /  1028.3hPa NNW 8.0mph /  12.9km/h 17.0mph /  27.4km/h 43% 0.00in /  0mm
15:03 56.9 °F /  13.8 °C 32.8 °F /  0.4 °C 30.36in /  1028hPa NNE 12.0mph /  19.3km/h 16.0mph /  25.7km/h 40% 0.00in /  0mm
15:08 57.1 °F /  13.9 °C 33.0 °F /  0.6 °C 30.36in /  1028hPa NNE 12.0mph /  19.3km/h 17.0mph /  27.4km/h 40% 0.00in /  0mm
15:13 57.2 °F /  14 °C 31.8 °F /  -0.1 °C 30.37in /  1028.3hPa North 16.0mph /  25.7km/h 16.0mph /  25.7km/h 38% 0.00in /  0mm
15:18 56.9 °F /  13.8 °C 30.9 °F /  -0.6 °C 30.37in /  1028.3hPa North 13.0mph /  20.9km/h 15.0mph /  24.1km/h 37% 0.00in /  0mm
15:23 57.4 °F /  14.1 °C 32.0 °F /  0 °C 30.37in /  1028.3hPa North 9.0mph /  14.5km/h 13.0mph /  20.9km/h 38% 0.00in /  0mm
15:28 57.4 °F /  14.1 °C 31.4 °F /  -0.3 °C 30.37in /  1028.3hPa NNW 14.0mph /  22.5km/h 18.0mph /  29km/h 37% 0.00in /  0mm
15:33 57.3 °F /  14.1 °C 31.9 °F /  -0.1 °C 30.36in /  1028hPa North 13.0mph /  20.9km/h 13.0mph /  20.9km/h 38% 0.00in /  0mm
15:38 57.7 °F /  14.3 °C 31.6 °F /  -0.2 °C 30.36in /  1028hPa NNW 12.0mph /  19.3km/h 15.0mph /  24.1km/h 37% 0.00in /  0mm
15:43 57.6 °F /  14.2 °C 30.2 °F /  -1 °C 30.36in /  1028hPa NW 9.0mph /  14.5km/h 17.0mph /  27.4km/h 35% 0.00in /  0mm
15:48 57.6 °F /  14.2 °C 31.5 °F /  -0.3 °C 30.35in /  1027.7hPa NE 13.0mph /  20.9km/h 13.0mph /  20.9km/h 37% 0.00in /  0mm
15:53 57.4 °F /  14.1 °C 30.0 °F /  -1.1 °C 30.36in /  1028hPa NNE 11.0mph /  17.7km/h 15.0mph /  24.1km/h 35% 0.00in /  0mm
15:58 57.3 °F /  14.1 °C 31.3 °F /  -0.4 °C 30.36in /  1028hPa NNW 6.0mph /  9.7km/h 12.0mph /  19.3km/h 37% 0.00in /  0mm
16:03 57.1 °F /  13.9 °C 29.7 °F /  -1.3 °C 30.36in /  1028hPa NNE 12.0mph /  19.3km/h 19.0mph /  30.6km/h 35% 0.00in /  0mm
16:08 57.4 °F /  14.1 °C 30.7 °F /  -0.7 °C 30.36in /  1028hPa NNW 11.0mph /  17.7km/h 14.0mph /  22.5km/h 36% 0.00in /  0mm
16:13 57.6 °F /  14.2 °C 31.5 °F /  -0.3 °C 30.35in /  1027.7hPa NNW 13.0mph /  20.9km/h 20.0mph /  32.2km/h 37% 0.00in /  0mm
16:18 57.7 °F /  14.3 °C 30.3 °F /  -0.9 °C 30.35in /  1027.7hPa NNE 13.0mph /  20.9km/h 16.0mph /  25.7km/h 35% 0.00in /  0mm
16:23 57.4 °F /  14.1 °C 29.3 °F /  -1.5 °C 30.35in /  1027.7hPa NNE 12.0mph /  19.3km/h 16.0mph /  25.7km/h 34% 0.00in /  0mm
16:28 57.3 °F /  14.1 °C 29.9 °F /  -1.2 °C 30.35in /  1027.7hPa NNW 6.0mph /  9.7km/h 17.0mph /  27.4km/h 35% 0.00in /  0mm
16:33 57.8 °F /  14.3 °C 30.4 °F /  -0.9 °C 30.36in /  1028hPa NNE 4.0mph /  6.4km/h 12.0mph /  19.3km/h 35% 0.00in /  0mm
16:39 58.0 °F /  14.4 °C 30.5 °F /  -0.8 °C 30.36in /  1028hPa North 9.0mph /  14.5km/h 15.0mph /  24.1km/h 35% 0.00in /  0mm
16:44 58.2 °F /  14.6 °C 31.4 °F /  -0.3 °C 30.36in /  1028hPa NNW 10.0mph /  16.1km/h 13.0mph /  20.9km/h 36% 0.00in /  0mm
16:49 58.1 °F /  14.5 °C 29.9 °F /  -1.2 °C 30.36in /  1028hPa NNE 6.0mph /  9.7km/h 16.0mph /  25.7km/h 34% 0.00in /  0mm
16:54 58.1 °F /  14.5 °C 30.6 °F /  -0.8 °C 30.36in /  1028hPa North 12.0mph /  19.3km/h 17.0mph /  27.4km/h 35% 0.00in /  0mm
16:59 58.1 °F /  14.5 °C 29.2 °F /  -1.6 °C 30.36in /  1028hPa NNE 12.0mph /  19.3km/h 13.0mph /  20.9km/h 33% 0.00in /  0mm
17:04 58.0 °F /  14.4 °C 29.1 °F /  -1.6 °C 30.36in /  1028hPa NNW 7.0mph /  11.3km/h 15.0mph /  24.1km/h 33% 0.00in /  0mm
17:09 58.0 °F /  14.4 °C 31.2 °F /  -0.4 °C 30.36in /  1028hPa North 11.0mph /  17.7km/h 11.0mph /  17.7km/h 36% 0.00in /  0mm
17:14 57.8 °F /  14.3 °C 29.6 °F /  -1.3 °C 30.36in /  1028hPa NE 10.0mph /  16.1km/h 14.0mph /  22.5km/h 34% 0.00in /  0mm
17:19 57.6 °F /  14.2 °C 28.7 °F /  -1.8 °C 30.36in /  1028hPa NNE 6.0mph /  9.7km/h 13.0mph /  20.9km/h 33% 0.00in /  0mm
17:24 57.7 °F /  14.3 °C 28.8 °F /  -1.8 °C 30.37in /  1028.3hPa NNE 7.0mph /  11.3km/h 10.0mph /  16.1km/h 33% 0.00in /  0mm
17:29 57.8 °F /  14.3 °C 30.4 °F /  -0.9 °C 30.38in /  1028.7hPa NW 7.0mph /  11.3km/h 11.0mph /  17.7km/h 35% 0.00in /  0mm
17:34 57.8 °F /  14.3 °C 30.4 °F /  -0.9 °C 30.38in /  1028.7hPa NNE 7.0mph /  11.3km/h 9.0mph /  14.5km/h 35% 0.00in /  0mm
17:39 57.6 °F /  14.2 °C 29.5 °F /  -1.4 °C 30.38in /  1028.7hPa North 5.0mph /  8km/h 10.0mph /  16.1km/h 34% 0.00in /  0mm
17:44 57.5 °F /  14.2 °C 30.1 °F /  -1.1 °C 30.37in /  1028.3hPa North 8.0mph /  12.9km/h 10.0mph /  16.1km/h 35% 0.00in /  0mm
17:49 57.4 °F /  14.1 °C 31.4 °F /  -0.3 °C 30.37in /  1028.3hPa North 8.0mph /  12.9km/h 11.0mph /  17.7km/h 37% 0.00in /  0mm
17:54 57.2 °F /  14 °C 29.8 °F /  -1.2 °C 30.37in /  1028.3hPa North 6.0mph /  9.7km/h 10.0mph /  16.1km/h 35% 0.00in /  0mm
17:59 57.0 °F /  13.9 °C 29.6 °F /  -1.3 °C 30.37in /  1028.3hPa NNE 5.0mph /  8km/h 8.0mph /  12.9km/h 35% 0.00in /  0mm
18:04 56.8 °F /  13.8 °C 29.5 °F /  -1.4 °C 30.37in /  1028.3hPa NE 7.0mph /  11.3km/h 9.0mph /  14.5km/h 35% 0.00in /  0mm
18:09 56.7 °F /  13.7 °C 30.1 °F /  -1.1 °C 30.36in /  1028hPa North 6.0mph /  9.7km/h 9.0mph /  14.5km/h 36% 0.00in /  0mm
18:14 56.4 °F /  13.6 °C 28.4 °F /  -2 °C 30.37in /  1028.3hPa North 5.0mph /  8km/h 9.0mph /  14.5km/h 34% 0.00in /  0mm
18:19 56.1 °F /  13.4 °C 28.8 °F /  -1.8 °C 30.37in /  1028.3hPa North 7.0mph /  11.3km/h 7.0mph /  11.3km/h 35% 0.00in /  0mm
18:24 55.8 °F /  13.2 °C 29.3 °F /  -1.5 °C 30.37in /  1028.3hPa WNW 6.0mph /  9.7km/h 10.0mph /  16.1km/h 36% 0.00in /  0mm
18:29 55.1 °F /  12.8 °C 29.3 °F /  -1.5 °C 30.37in /  1028.3hPa North 6.0mph /  9.7km/h 7.0mph /  11.3km/h 37% 0.00in /  0mm
18:34 54.6 °F /  12.6 °C 29.5 °F /  -1.4 °C 30.37in /  1028.3hPa North 6.0mph /  9.7km/h 11.0mph /  17.7km/h 38% 0.00in /  0mm
18:39 54.2 °F /  12.3 °C 28.5 °F /  -1.9 °C 30.37in /  1028.3hPa NW 5.0mph /  8km/h 9.0mph /  14.5km/h 37% 0.00in /  0mm
18:44 53.9 °F /  12.2 °C 28.9 °F /  -1.7 °C 30.37in /  1028.3hPa NNW 5.0mph /  8km/h 11.0mph /  17.7km/h 38% 0.00in /  0mm
18:49 53.3 °F /  11.8 °C 29.0 °F /  -1.7 °C 30.37in /  1028.3hPa NNE 6.0mph /  9.7km/h 11.0mph /  17.7km/h 39% 0.00in /  0mm
18:54 52.9 °F /  11.6 °C 29.2 °F /  -1.6 °C 30.37in /  1028.3hPa North 5.0mph /  8km/h 9.0mph /  14.5km/h 40% 0.00in /  0mm
18:59 52.7 °F /  11.5 °C 29.1 °F /  -1.6 °C 30.37in /  1028.3hPa NNW 4.0mph /  6.4km/h 9.0mph /  14.5km/h 40% 0.00in /  0mm
19:04 52.4 °F /  11.3 °C 28.8 °F /  -1.8 °C 30.37in /  1028.3hPa NNW 4.0mph /  6.4km/h 8.0mph /  12.9km/h 40% 0.00in /  0mm
19:09 52.0 °F /  11.1 °C 28.5 °F /  -1.9 °C 30.37in /  1028.3hPa NNW 3.0mph /  4.8km/h 8.0mph /  12.9km/h 40% 0.00in /  0mm
19:14 51.8 °F /  11 °C 28.9 °F /  -1.7 °C 30.37in /  1028.3hPa North 5.0mph /  8km/h 6.0mph /  9.7km/h 41% 0.00in /  0mm
19:19 51.5 °F /  10.8 °C 28.6 °F /  -1.9 °C 30.37in /  1028.3hPa NNW 3.0mph /  4.8km/h 7.0mph /  11.3km/h 41% 0.00in /  0mm
19:24 51.4 °F /  10.8 °C 29.1 °F /  -1.6 °C 30.37in /  1028.3hPa NNW 5.0mph /  8km/h 10.0mph /  16.1km/h 42% 0.00in /  0mm
19:29 51.1 °F /  10.6 °C 29.4 °F /  -1.4 °C 30.37in /  1028.3hPa NNE 4.0mph /  6.4km/h 6.0mph /  9.7km/h 43% 0.00in /  0mm
19:34 50.8 °F /  10.4 °C 29.7 °F /  -1.3 °C 30.37in /  1028.3hPa North 2.0mph /  3.2km/h 6.0mph /  9.7km/h 44% 0.00in /  0mm
19:39 50.6 °F /  10.3 °C 29.5 °F /  -1.4 °C 30.38in /  1028.7hPa North 4.0mph /  6.4km/h 4.0mph /  6.4km/h 44% 0.00in /  0mm
19:45 50.3 °F /  10.2 °C 29.8 °F /  -1.2 °C 30.38in /  1028.7hPa NNW 3.0mph /  4.8km/h 7.0mph /  11.3km/h 45% 0.00in /  0mm
19:50 50.3 °F /  10.2 °C 29.8 °F /  -1.2 °C 30.38in /  1028.7hPa NNW 4.0mph /  6.4km/h 7.0mph /  11.3km/h 45% 0.00in /  0mm
19:55 50.2 °F /  10.1 °C 29.1 °F /  -1.6 °C 30.38in /  1028.7hPa North 4.0mph /  6.4km/h 8.0mph /  12.9km/h 44% 0.00in /  0mm
20:00 50.1 °F /  10.1 °C 29.0 °F /  -1.7 °C 30.38in /  1028.7hPa NNW 3.0mph /  4.8km/h 7.0mph /  11.3km/h 44% 0.00in /  0mm
20:05 50.1 °F /  10.1 °C 28.5 °F /  -1.9 °C 30.38in /  1028.7hPa NE 6.0mph /  9.7km/h 8.0mph /  12.9km/h 43% 0.00in /  0mm
20:10 50.1 °F /  10.1 °C 28.5 °F /  -1.9 °C 30.38in /  1028.7hPa North 5.0mph /  8km/h 9.0mph /  14.5km/h 43% 0.00in /  0mm
20:15 50.0 °F /  10 °C 28.4 °F /  -2 °C 30.39in /  1029hPa North 6.0mph /  9.7km/h 8.0mph /  12.9km/h 43% 0.00in /  0mm
20:20 49.6 °F /  9.8 °C 28.6 °F /  -1.9 °C 30.39in /  1029hPa North 4.0mph /  6.4km/h 6.0mph /  9.7km/h 44% 0.00in /  0mm
20:25 49.3 °F /  9.6 °C 28.3 °F /  -2.1 °C 30.39in /  1029hPa NNE 3.0mph /  4.8km/h 6.0mph /  9.7km/h 44% 0.00in /  0mm
20:30 49.1 °F /  9.5 °C 28.1 °F /  -2.2 °C 30.39in /  1029hPa NNW 3.0mph /  4.8km/h 7.0mph /  11.3km/h 44% 0.00in /  0mm
20:35 48.9 °F /  9.4 °C 28.0 °F /  -2.2 °C 30.39in /  1029hPa NNE 4.0mph /  6.4km/h 6.0mph /  9.7km/h 44% 0.00in /  0mm
20:36 48.9 °F /  9.4 °C 28.0 °F /  -2.2 °C 30.39in /  1029hPa NNE 4.0mph /  6.4km/h 6.0mph /  9.7km/h 44% 0.00in /  0mm
20:41 48.8 °F /  9.3 °C 27.9 °F /  -2.3 °C 30.39in /  1029hPa NNE 4.0mph /  6.4km/h 7.0mph /  11.3km/h 44% 0.00in /  0mm
20:46 48.7 °F /  9.3 °C 28.3 °F /  -2.1 °C 30.39in /  1029hPa NNE 3.0mph /  4.8km/h 4.0mph /  6.4km/h 45% 0.00in /  0mm
20:51 48.4 °F /  9.1 °C 28.0 °F /  -2.2 °C 30.40in /  1029.3hPa North 3.0mph /  4.8km/h 4.0mph /  6.4km/h 45% 0.00in /  0mm
20:56 48.0 °F /  8.9 °C 28.2 °F /  -2.1 °C 30.40in /  1029.3hPa North 4.0mph /  6.4km/h 4.0mph /  6.4km/h 46% 0.00in /  0mm
21:01 47.7 °F /  8.7 °C 28.0 °F /  -2.2 °C 30.40in /  1029.3hPa NNE 3.0mph /  4.8km/h 4.0mph /  6.4km/h 46% 0.00in /  0mm
21:06 47.5 °F /  8.6 °C 27.8 °F /  -2.3 °C 30.40in /  1029.3hPa NNW 3.0mph /  4.8km/h 5.0mph /  8km/h 46% 0.00in /  0mm
21:11 47.5 °F /  8.6 °C 27.8 °F /  -2.3 °C 30.40in /  1029.3hPa North 3.0mph /  4.8km/h 4.0mph /  6.4km/h 46% 0.00in /  0mm
21:16 47.3 °F /  8.5 °C 27.6 °F /  -2.4 °C 30.40in /  1029.3hPa North 4.0mph /  6.4km/h 5.0mph /  8km/h 46% 0.00in /  0mm
21:21 47.1 °F /  8.4 °C 27.9 °F /  -2.3 °C 30.40in /  1029.3hPa North 5.0mph /  8km/h 5.0mph /  8km/h 47% 0.00in /  0mm
21:26 46.8 °F /  8.2 °C 28.2 °F /  -2.1 °C 30.40in /  1029.3hPa North 4.0mph /  6.4km/h 6.0mph /  9.7km/h 48% 0.00in /  0mm
21:31 46.7 °F /  8.2 °C 28.1 °F /  -2.2 °C 30.40in /  1029.3hPa North 3.0mph /  4.8km/h 5.0mph /  8km/h 48% 0.00in /  0mm
21:36 46.6 °F /  8.1 °C 28.0 °F /  -2.2 °C 30.40in /  1029.3hPa NNW 5.0mph /  8km/h 6.0mph /  9.7km/h 48% 0.00in /  0mm
21:41 46.4 °F /  8 °C 27.8 °F /  -2.3 °C 30.40in /  1029.3hPa North 6.0mph /  9.7km/h 6.0mph /  9.7km/h 48% 0.00in /  0mm
21:46 46.5 °F /  8.1 °C 27.9 °F /  -2.3 °C 30.40in /  1029.3hPa North 4.0mph /  6.4km/h 7.0mph /  11.3km/h 48% 0.00in /  0mm
21:51 46.4 °F /  8 °C 27.8 °F /  -2.3 °C 30.40in /  1029.3hPa NNW 4.0mph /  6.4km/h 7.0mph /  11.3km/h 48% 0.00in /  0mm
21:56 46.1 °F /  7.8 °C 28.0 °F /  -2.2 °C 30.40in /  1029.3hPa North 4.0mph /  6.4km/h 5.0mph /  8km/h 49% 0.00in /  0mm
22:01 45.9 °F /  7.7 °C 27.8 °F /  -2.3 °C 30.40in /  1029.3hPa North 6.0mph /  9.7km/h 7.0mph /  11.3km/h 49% 0.00in /  0mm
22:06 45.7 °F /  7.6 °C 27.6 °F /  -2.4 °C 30.40in /  1029.3hPa NNE 4.0mph /  6.4km/h 7.0mph /  11.3km/h 49% 0.00in /  0mm
22:11 45.6 °F /  7.6 °C 27.6 °F /  -2.4 °C 30.40in /  1029.3hPa NNW 5.0mph /  8km/h 7.0mph /  11.3km/h 49% 0.00in /  0mm
22:16 45.5 °F /  7.5 °C 27.5 °F /  -2.5 °C 30.40in /  1029.3hPa North 6.0mph /  9.7km/h 8.0mph /  12.9km/h 49% 0.00in /  0mm
22:21 45.4 °F /  7.4 °C 27.4 °F /  -2.6 °C 30.40in /  1029.3hPa North 6.0mph /  9.7km/h 7.0mph /  11.3km/h 49% 0.00in /  0mm
22:26 45.4 °F /  7.4 °C 27.4 °F /  -2.6 °C 30.40in /  1029.3hPa NNE 5.0mph /  8km/h 7.0mph /  11.3km/h 49% 0.00in /  0mm
22:31 45.2 °F /  7.3 °C 27.2 °F /  -2.7 °C 30.40in /  1029.3hPa North 5.0mph /  8km/h 8.0mph /  12.9km/h 49% 0.00in /  0mm
22:37 45.2 °F /  7.3 °C 27.2 °F /  -2.7 °C 30.40in /  1029.3hPa NNE 4.0mph /  6.4km/h 9.0mph /  14.5km/h 49% 0.00in /  0mm
22:42 45.0 °F /  7.2 °C 27.0 °F /  -2.8 °C 30.40in /  1029.3hPa NNE 3.0mph /  4.8km/h 6.0mph /  9.7km/h 49% 0.00in /  0mm
22:47 44.9 °F /  7.2 °C 26.9 °F /  -2.8 °C 30.40in /  1029.3hPa NNW 4.0mph /  6.4km/h 5.0mph /  8km/h 49% 0.00in /  0mm
22:52 44.8 °F /  7.1 °C 26.8 °F /  -2.9 °C 30.40in /  1029.3hPa NNW 3.0mph /  4.8km/h 7.0mph /  11.3km/h 49% 0.00in /  0mm
22:57 44.8 °F /  7.1 °C 26.8 °F /  -2.9 °C 30.40in /  1029.3hPa North 7.0mph /  11.3km/h 8.0mph /  12.9km/h 49% 0.00in /  0mm
23:02 44.9 °F /  7.2 °C 26.4 °F /  -3.1 °C 30.40in /  1029.3hPa NNE 4.0mph /  6.4km/h 9.0mph /  14.5km/h 48% 0.00in /  0mm
23:07 45.0 °F /  7.2 °C 26.5 °F /  -3.1 °C 30.40in /  1029.3hPa NNE 3.0mph /  4.8km/h 7.0mph /  11.3km/h 48% 0.00in /  0mm
23:12 44.9 °F /  7.2 °C 26.4 °F /  -3.1 °C 30.40in /  1029.3hPa NNE 4.0mph /  6.4km/h 6.0mph /  9.7km/h 48% 0.00in /  0mm
23:17 44.8 °F /  7.1 °C 26.3 °F /  -3.2 °C 30.40in /  1029.3hPa NNE 5.0mph /  8km/h 6.0mph /  9.7km/h 48% 0.00in /  0mm
23:22 44.7 °F /  7.1 °C 26.2 °F /  -3.2 °C 30.41in /  1029.7hPa North 5.0mph /  8km/h 7.0mph /  11.3km/h 48% 0.00in /  0mm
23:27 44.5 °F /  6.9 °C 26.0 °F /  -3.3 °C 30.41in /  1029.7hPa NNE 4.0mph /  6.4km/h 6.0mph /  9.7km/h 48% 0.00in /  0mm
23:32 44.2 °F /  6.8 °C 26.3 °F /  -3.2 °C 30.41in /  1029.7hPa NNE 3.0mph /  4.8km/h 4.0mph /  6.4km/h 49% 0.00in /  0mm
23:37 44.0 °F /  6.7 °C 26.1 °F /  -3.3 °C 30.42in /  1030hPa NNE 3.0mph /  4.8km/h 5.0mph /  8km/h 49% 0.00in /  0mm
23:42 44.1 °F /  6.7 °C 26.2 °F /  -3.2 °C 30.42in /  1030hPa North 4.0mph /  6.4km/h 7.0mph /  11.3km/h 49% 0.00in /  0mm
23:47 43.8 °F /  6.6 °C 25.9 °F /  -3.4 °C 30.42in /  1030hPa NNE 6.0mph /  9.7km/h 7.0mph /  11.3km/h 49% 0.00in /  0mm
23:52 43.6 °F /  6.4 °C 25.7 °F /  -3.5 °C 30.41in /  1029.7hPa NNE 3.0mph /  4.8km/h 7.0mph /  11.3km/h 49% 0.00in /  0mm
23:57 43.7 °F /  6.5 °C 25.8 °F /  -3.4 °C 30.41in /  1029.7hPa North 5.0mph /  8km/h 8.0mph /  12.9km/h 49% 0.00in /  0mm
Compliments of Weather Underground